sensor_id;sensor_type;location;lat;lon;timestamp;P1;durP1;ratioP1;P2;durP2;ratioP2
23230;SDS011;11784;49.818;8.632;2023-01-31T00:01:11;22.70;;;7.53;;
23230;SDS011;11784;49.818;8.632;2023-01-31T00:03:38;48.85;;;16.55;;
23230;SDS011;11784;49.818;8.632;2023-01-31T00:06:08;38.28;;;15.02;;
23230;SDS011;11784;49.818;8.632;2023-01-31T00:08:34;51.63;;;17.30;;
23230;SDS011;11784;49.818;8.632;2023-01-31T00:11:00;81.90;;;23.67;;
23230;SDS011;11784;49.818;8.632;2023-01-31T00:13:26;26.20;;;8.65;;
23230;SDS011;11784;49.818;8.632;2023-01-31T00:15:54;18.02;;;4.40;;
23230;SDS011;11784;49.818;8.632;2023-01-31T00:18:20;21.10;;;6.47;;
23230;SDS011;11784;49.818;8.632;2023-01-31T00:20:46;53.65;;;15.93;;
23230;SDS011;11784;49.818;8.632;2023-01-31T00:23:11;60.05;;;15.43;;
23230;SDS011;11784;49.818;8.632;2023-01-31T00:25:37;41.35;;;13.23;;
23230;SDS011;11784;49.818;8.632;2023-01-31T00:28:02;68.95;;;23.17;;
23230;SDS011;11784;49.818;8.632;2023-01-31T00:30:28;54.60;;;17.17;;
23230;SDS011;11784;49.818;8.632;2023-01-31T00:32:53;57.05;;;20.05;;
23230;SDS011;11784;49.818;8.632;2023-01-31T00:35:19;56.38;;;21.17;;
23230;SDS011;11784;49.818;8.632;2023-01-31T00:37:44;40.95;;;16.10;;
23230;SDS011;11784;49.818;8.632;2023-01-31T00:40:10;58.15;;;18.75;;
23230;SDS011;11784;49.818;8.632;2023-01-31T00:42:36;30.45;;;9.85;;
23230;SDS011;11784;49.818;8.632;2023-01-31T00:45:01;19.73;;;5.18;;
23230;SDS011;11784;49.818;8.632;2023-01-31T00:47:27;6.82;;;3.58;;
23230;SDS011;11784;49.818;8.632;2023-01-31T00:49:52;17.00;;;4.38;;
23230;SDS011;11784;49.818;8.632;2023-01-31T00:52:18;31.77;;;9.98;;
23230;SDS011;11784;49.818;8.632;2023-01-31T00:54:43;27.70;;;11.50;;
23230;SDS011;11784;49.818;8.632;2023-01-31T00:57:09;35.28;;;13.82;;
23230;SDS011;11784;49.818;8.632;2023-01-31T00:59:34;39.60;;;13.05;;
23230;SDS011;11784;49.818;8.632;2023-01-31T01:02:00;32.22;;;12.35;;
23230;SDS011;11784;49.818;8.632;2023-01-31T01:04:26;30.52;;;9.60;;
23230;SDS011;11784;49.818;8.632;2023-01-31T01:06:51;38.40;;;12.02;;
23230;SDS011;11784;49.818;8.632;2023-01-31T01:09:17;16.80;;;7.15;;
23230;SDS011;11784;49.818;8.632;2023-01-31T01:11:42;34.63;;;8.60;;
23230;SDS011;11784;49.818;8.632;2023-01-31T01:14:08;22.75;;;8.90;;
23230;SDS011;11784;49.818;8.632;2023-01-31T01:16:36;23.77;;;7.97;;
23230;SDS011;11784;49.818;8.632;2023-01-31T01:19:03;26.95;;;8.30;;
23230;SDS011;11784;49.818;8.632;2023-01-31T01:21:30;23.10;;;8.95;;
23230;SDS011;11784;49.818;8.632;2023-01-31T01:23:57;22.83;;;7.93;;
23230;SDS011;11784;49.818;8.632;2023-01-31T01:26:24;13.10;;;6.20;;
23230;SDS011;11784;49.818;8.632;2023-01-31T01:28:52;20.83;;;5.63;;
23230;SDS011;11784;49.818;8.632;2023-01-31T01:31:19;14.13;;;6.53;;
23230;SDS011;11784;49.818;8.632;2023-01-31T01:33:46;16.45;;;6.47;;
23230;SDS011;11784;49.818;8.632;2023-01-31T01:36:13;13.73;;;6.43;;
23230;SDS011;11784;49.818;8.632;2023-01-31T01:38:42;27.27;;;9.80;;
23230;SDS011;11784;49.818;8.632;2023-01-31T01:41:09;24.05;;;7.35;;
23230;SDS011;11784;49.818;8.632;2023-01-31T01:48:42;31.38;;;9.93;;
23230;SDS011;11784;49.818;8.632;2023-01-31T01:51:11;19.08;;;7.78;;
23230;SDS011;11784;49.818;8.632;2023-01-31T01:53:38;16.98;;;7.43;;
23230;SDS011;11784;49.818;8.632;2023-01-31T01:56:11;18.02;;;5.82;;
23230;SDS011;11784;49.818;8.632;2023-01-31T01:58:52;17.17;;;7.40;;
23230;SDS011;11784;49.818;8.632;2023-01-31T02:01:25;16.10;;;5.85;;
23230;SDS011;11784;49.818;8.632;2023-01-31T02:03:54;19.73;;;6.78;;
23230;SDS011;11784;49.818;8.632;2023-01-31T02:06:21;14.93;;;5.57;;
23230;SDS011;11784;49.818;8.632;2023-01-31T02:08:46;14.85;;;4.90;;
23230;SDS011;11784;49.818;8.632;2023-01-31T02:13:49;4.60;;;1.80;;
23230;SDS011;11784;49.818;8.632;2023-01-31T02:16:18;4.97;;;1.80;;
23230;SDS011;11784;49.818;8.632;2023-01-31T02:18:44;7.22;;;2.58;;
23230;SDS011;11784;49.818;8.632;2023-01-31T02:21:22;7.13;;;2.90;;
23230;SDS011;11784;49.818;8.632;2023-01-31T02:23:56;3.35;;;1.75;;
23230;SDS011;11784;49.818;8.632;2023-01-31T02:27:07;6.90;;;2.03;;
23230;SDS011;11784;49.818;8.632;2023-01-31T02:30:00;10.48;;;2.35;;
23230;SDS011;11784;49.818;8.632;2023-01-31T02:32:41;3.55;;;1.92;;
23230;SDS011;11784;49.818;8.632;2023-01-31T02:46:26;7.35;;;2.30;;
23230;SDS011;11784;49.818;8.632;2023-01-31T02:49:06;3.38;;;1.38;;
23230;SDS011;11784;49.818;8.632;2023-01-31T02:58:01;1.63;;;1.10;;
23230;SDS011;11784;49.818;8.632;2023-01-31T03:00:30;3.33;;;1.52;;
23230;SDS011;11784;49.818;8.632;2023-01-31T03:02:58;5.05;;;1.70;;
23230;SDS011;11784;49.818;8.632;2023-01-31T03:05:24;2.42;;;1.30;;
23230;SDS011;11784;49.818;8.632;2023-01-31T03:07:53;5.97;;;1.30;;
23230;SDS011;11784;49.818;8.632;2023-01-31T03:13:22;3.33;;;1.25;;
23230;SDS011;11784;49.818;8.632;2023-01-31T03:16:01;4.47;;;1.42;;
23230;SDS011;11784;49.818;8.632;2023-01-31T03:18:51;2.65;;;0.93;;
23230;SDS011;11784;49.818;8.632;2023-01-31T03:21:26;9.32;;;1.88;;
23230;SDS011;11784;49.818;8.632;2023-01-31T03:23:57;3.83;;;2.00;;
23230;SDS011;11784;49.818;8.632;2023-01-31T03:26:23;3.40;;;1.70;;
23230;SDS011;11784;49.818;8.632;2023-01-31T03:28:51;8.50;;;2.22;;
23230;SDS011;11784;49.818;8.632;2023-01-31T03:31:25;4.20;;;2.08;;
23230;SDS011;11784;49.818;8.632;2023-01-31T03:34:04;4.20;;;1.75;;
23230;SDS011;11784;49.818;8.632;2023-01-31T03:36:42;6.32;;;1.42;;
23230;SDS011;11784;49.818;8.632;2023-01-31T03:39:28;8.30;;;1.88;;
23230;SDS011;11784;49.818;8.632;2023-01-31T03:42:03;2.53;;;1.33;;
23230;SDS011;11784;49.818;8.632;2023-01-31T03:47:11;2.90;;;1.33;;
23230;SDS011;11784;49.818;8.632;2023-01-31T03:49:41;2.38;;;1.05;;
23230;SDS011;11784;49.818;8.632;2023-01-31T03:52:09;2.33;;;1.58;;
23230;SDS011;11784;49.818;8.632;2023-01-31T03:54:40;2.78;;;1.40;;
23230;SDS011;11784;49.818;8.632;2023-01-31T03:59:40;5.97;;;1.52;;
23230;SDS011;11784;49.818;8.632;2023-01-31T04:02:09;11.40;;;1.75;;
23230;SDS011;11784;49.818;8.632;2023-01-31T04:07:05;2.20;;;1.00;;
23230;SDS011;11784;49.818;8.632;2023-01-31T04:09:31;5.95;;;1.60;;
23230;SDS011;11784;49.818;8.632;2023-01-31T04:12:00;3.20;;;2.03;;
23230;SDS011;11784;49.818;8.632;2023-01-31T04:14:27;2.45;;;1.40;;
23230;SDS011;11784;49.818;8.632;2023-01-31T04:16:53;2.53;;;1.15;;
23230;SDS011;11784;49.818;8.632;2023-01-31T04:19:18;8.70;;;1.67;;
23230;SDS011;11784;49.818;8.632;2023-01-31T04:21:44;14.85;;;1.75;;
23230;SDS011;11784;49.818;8.632;2023-01-31T04:24:09;4.68;;;1.70;;
23230;SDS011;11784;49.818;8.632;2023-01-31T04:26:35;3.05;;;1.27;;
23230;SDS011;11784;49.818;8.632;2023-01-31T04:29:01;5.03;;;1.80;;
23230;SDS011;11784;49.818;8.632;2023-01-31T04:31:27;3.92;;;1.30;;
23230;SDS011;11784;49.818;8.632;2023-01-31T04:33:53;3.80;;;1.83;;
23230;SDS011;11784;49.818;8.632;2023-01-31T04:36:18;4.80;;;1.45;;
23230;SDS011;11784;49.818;8.632;2023-01-31T04:38:44;2.63;;;1.33;;
23230;SDS011;11784;49.818;8.632;2023-01-31T04:41:09;2.95;;;0.90;;
23230;SDS011;11784;49.818;8.632;2023-01-31T04:43:35;9.77;;;1.88;;
23230;SDS011;11784;49.818;8.632;2023-01-31T04:46:00;3.47;;;1.73;;
23230;SDS011;11784;49.818;8.632;2023-01-31T04:48:26;2.75;;;1.25;;
23230;SDS011;11784;49.818;8.632;2023-01-31T04:50:51;0.75;;;0.57;;
23230;SDS011;11784;49.818;8.632;2023-01-31T04:53:17;2.03;;;1.45;;
23230;SDS011;11784;49.818;8.632;2023-01-31T04:55:42;1.75;;;0.82;;
23230;SDS011;11784;49.818;8.632;2023-01-31T04:58:08;5.47;;;1.13;;
23230;SDS011;11784;49.818;8.632;2023-01-31T05:00:34;5.63;;;0.95;;
23230;SDS011;11784;49.818;8.632;2023-01-31T05:02:59;2.53;;;1.10;;
23230;SDS011;11784;49.818;8.632;2023-01-31T05:05:25;4.00;;;1.23;;
23230;SDS011;11784;49.818;8.632;2023-01-31T05:07:51;6.68;;;1.50;;
23230;SDS011;11784;49.818;8.632;2023-01-31T05:10:17;7.53;;;1.48;;
23230;SDS011;11784;49.818;8.632;2023-01-31T05:12:42;5.85;;;1.30;;
23230;SDS011;11784;49.818;8.632;2023-01-31T05:15:08;1.63;;;1.10;;
23230;SDS011;11784;49.818;8.632;2023-01-31T05:17:35;2.90;;;0.82;;
23230;SDS011;11784;49.818;8.632;2023-01-31T05:20:01;1.92;;;1.30;;
23230;SDS011;11784;49.818;8.632;2023-01-31T05:22:27;2.78;;;1.55;;
23230;SDS011;11784;49.818;8.632;2023-01-31T05:24:53;10.40;;;2.20;;
23230;SDS011;11784;49.818;8.632;2023-01-31T05:27:18;5.10;;;1.90;;
23230;SDS011;11784;49.818;8.632;2023-01-31T05:29:44;5.75;;;1.73;;
23230;SDS011;11784;49.818;8.632;2023-01-31T05:32:10;3.83;;;1.20;;
23230;SDS011;11784;49.818;8.632;2023-01-31T05:34:36;4.10;;;1.15;;
23230;SDS011;11784;49.818;8.632;2023-01-31T05:37:02;9.15;;;1.40;;
23230;SDS011;11784;49.818;8.632;2023-01-31T05:39:28;3.88;;;1.48;;
23230;SDS011;11784;49.818;8.632;2023-01-31T05:41:54;1.75;;;1.05;;
23230;SDS011;11784;49.818;8.632;2023-01-31T05:44:20;4.13;;;1.15;;
23230;SDS011;11784;49.818;8.632;2023-01-31T05:46:45;2.67;;;0.98;;
23230;SDS011;11784;49.818;8.632;2023-01-31T05:49:11;2.92;;;1.38;;
23230;SDS011;11784;49.818;8.632;2023-01-31T05:51:37;3.80;;;1.45;;
23230;SDS011;11784;49.818;8.632;2023-01-31T05:54:03;5.80;;;1.33;;
23230;SDS011;11784;49.818;8.632;2023-01-31T05:56:29;2.70;;;1.08;;
23230;SDS011;11784;49.818;8.632;2023-01-31T05:58:55;3.88;;;1.33;;
23230;SDS011;11784;49.818;8.632;2023-01-31T06:01:21;6.18;;;1.88;;
23230;SDS011;11784;49.818;8.632;2023-01-31T06:03:48;3.40;;;1.95;;
23230;SDS011;11784;49.818;8.632;2023-01-31T06:06:14;5.55;;;1.65;;
23230;SDS011;11784;49.818;8.632;2023-01-31T06:08:39;1.90;;;0.95;;
23230;SDS011;11784;49.818;8.632;2023-01-31T06:11:06;6.60;;;1.40;;
23230;SDS011;11784;49.818;8.632;2023-01-31T06:13:32;3.33;;;1.95;;
23230;SDS011;11784;49.818;8.632;2023-01-31T06:15:58;4.95;;;1.98;;
23230;SDS011;11784;49.818;8.632;2023-01-31T06:18:23;2.40;;;1.70;;
23230;SDS011;11784;49.818;8.632;2023-01-31T06:20:50;5.53;;;1.92;;
23230;SDS011;11784;49.818;8.632;2023-01-31T06:23:16;1.63;;;1.00;;
23230;SDS011;11784;49.818;8.632;2023-01-31T06:25:42;1.80;;;1.00;;
23230;SDS011;11784;49.818;8.632;2023-01-31T06:28:07;6.03;;;1.70;;
23230;SDS011;11784;49.818;8.632;2023-01-31T06:30:33;1.92;;;1.30;;
23230;SDS011;11784;49.818;8.632;2023-01-31T06:32:59;2.95;;;1.10;;
23230;SDS011;11784;49.818;8.632;2023-01-31T06:35:25;4.30;;;1.30;;
23230;SDS011;11784;49.818;8.632;2023-01-31T06:37:50;8.25;;;2.30;;
23230;SDS011;11784;49.818;8.632;2023-01-31T06:40:16;7.90;;;1.95;;
23230;SDS011;11784;49.818;8.632;2023-01-31T06:42:42;7.38;;;2.22;;
23230;SDS011;11784;49.818;8.632;2023-01-31T06:45:07;6.07;;;2.40;;
23230;SDS011;11784;49.818;8.632;2023-01-31T06:47:33;3.80;;;1.70;;
23230;SDS011;11784;49.818;8.632;2023-01-31T06:49:59;7.00;;;2.42;;
23230;SDS011;11784;49.818;8.632;2023-01-31T06:52:24;5.32;;;1.95;;
23230;SDS011;11784;49.818;8.632;2023-01-31T06:54:51;7.70;;;2.40;;
23230;SDS011;11784;49.818;8.632;2023-01-31T06:57:17;6.40;;;2.95;;
23230;SDS011;11784;49.818;8.632;2023-01-31T06:59:42;5.78;;;2.03;;
23230;SDS011;11784;49.818;8.632;2023-01-31T07:02:08;6.60;;;2.78;;
23230;SDS011;11784;49.818;8.632;2023-01-31T07:04:35;7.72;;;2.47;;
23230;SDS011;11784;49.818;8.632;2023-01-31T07:07:00;5.97;;;2.72;;
23230;SDS011;11784;49.818;8.632;2023-01-31T07:09:26;6.03;;;2.40;;
23230;SDS011;11784;49.818;8.632;2023-01-31T07:11:51;3.67;;;1.90;;
23230;SDS011;11784;49.818;8.632;2023-01-31T07:14:17;9.02;;;2.50;;
23230;SDS011;11784;49.818;8.632;2023-01-31T07:16:43;5.05;;;1.85;;
23230;SDS011;11784;49.818;8.632;2023-01-31T07:19:08;9.57;;;3.95;;
23230;SDS011;11784;49.818;8.632;2023-01-31T07:21:34;9.20;;;3.08;;
23230;SDS011;11784;49.818;8.632;2023-01-31T07:24:00;3.80;;;2.45;;
23230;SDS011;11784;49.818;8.632;2023-01-31T07:26:27;6.70;;;2.28;;
23230;SDS011;11784;49.818;8.632;2023-01-31T07:28:52;6.82;;;2.60;;
23230;SDS011;11784;49.818;8.632;2023-01-31T07:31:18;10.05;;;2.85;;
23230;SDS011;11784;49.818;8.632;2023-01-31T07:33:44;5.13;;;2.45;;
23230;SDS011;11784;49.818;8.632;2023-01-31T07:36:13;7.15;;;2.45;;
23230;SDS011;11784;49.818;8.632;2023-01-31T07:38:40;7.57;;;3.17;;
23230;SDS011;11784;49.818;8.632;2023-01-31T07:41:06;4.47;;;1.85;;
23230;SDS011;11784;49.818;8.632;2023-01-31T07:43:33;5.50;;;2.95;;
23230;SDS011;11784;49.818;8.632;2023-01-31T07:45:59;5.25;;;2.75;;
23230;SDS011;11784;49.818;8.632;2023-01-31T07:48:25;5.07;;;1.95;;
23230;SDS011;11784;49.818;8.632;2023-01-31T07:50:52;7.45;;;2.95;;
23230;SDS011;11784;49.818;8.632;2023-01-31T07:53:22;11.55;;;4.93;;
23230;SDS011;11784;49.818;8.632;2023-01-31T07:55:48;6.65;;;3.00;;
23230;SDS011;11784;49.818;8.632;2023-01-31T07:58:13;9.23;;;2.85;;
23230;SDS011;11784;49.818;8.632;2023-01-31T08:00:40;8.30;;;2.90;;
23230;SDS011;11784;49.818;8.632;2023-01-31T08:03:26;12.35;;;3.92;;
23230;SDS011;11784;49.818;8.632;2023-01-31T08:05:56;6.15;;;2.83;;
23230;SDS011;11784;49.818;8.632;2023-01-31T08:08:22;15.98;;;4.05;;
23230;SDS011;11784;49.818;8.632;2023-01-31T08:10:47;7.60;;;3.13;;
23230;SDS011;11784;49.818;8.632;2023-01-31T08:13:13;6.43;;;2.53;;
23230;SDS011;11784;49.818;8.632;2023-01-31T08:15:38;8.02;;;2.92;;
23230;SDS011;11784;49.818;8.632;2023-01-31T08:18:04;5.40;;;2.97;;
23230;SDS011;11784;49.818;8.632;2023-01-31T08:20:29;9.35;;;3.72;;
23230;SDS011;11784;49.818;8.632;2023-01-31T08:22:55;9.63;;;2.78;;
23230;SDS011;11784;49.818;8.632;2023-01-31T08:25:23;4.70;;;2.75;;
23230;SDS011;11784;49.818;8.632;2023-01-31T08:27:50;5.63;;;2.30;;
23230;SDS011;11784;49.818;8.632;2023-01-31T08:30:16;6.40;;;3.53;;
23230;SDS011;11784;49.818;8.632;2023-01-31T08:32:41;6.10;;;2.53;;
23230;SDS011;11784;49.818;8.632;2023-01-31T08:35:07;6.82;;;3.75;;
23230;SDS011;11784;49.818;8.632;2023-01-31T08:37:33;3.75;;;1.92;;
23230;SDS011;11784;49.818;8.632;2023-01-31T08:39:58;4.22;;;1.73;;
23230;SDS011;11784;49.818;8.632;2023-01-31T08:42:24;4.88;;;1.88;;
23230;SDS011;11784;49.818;8.632;2023-01-31T08:44:49;5.85;;;2.08;;
23230;SDS011;11784;49.818;8.632;2023-01-31T08:47:15;7.43;;;2.40;;
23230;SDS011;11784;49.818;8.632;2023-01-31T08:49:40;8.35;;;2.60;;
23230;SDS011;11784;49.818;8.632;2023-01-31T08:52:06;7.88;;;3.03;;
23230;SDS011;11784;49.818;8.632;2023-01-31T08:54:31;4.95;;;1.90;;
23230;SDS011;11784;49.818;8.632;2023-01-31T08:56:57;5.03;;;2.13;;
23230;SDS011;11784;49.818;8.632;2023-01-31T08:59:22;4.07;;;1.92;;
23230;SDS011;11784;49.818;8.632;2023-01-31T09:01:48;10.35;;;1.80;;
23230;SDS011;11784;49.818;8.632;2023-01-31T09:04:14;7.50;;;2.65;;
23230;SDS011;11784;49.818;8.632;2023-01-31T09:06:40;10.32;;;3.40;;
23230;SDS011;11784;49.818;8.632;2023-01-31T09:09:05;5.80;;;2.47;;
23230;SDS011;11784;49.818;8.632;2023-01-31T09:11:31;4.82;;;2.85;;
23230;SDS011;11784;49.818;8.632;2023-01-31T09:13:57;4.57;;;1.52;;
23230;SDS011;11784;49.818;8.632;2023-01-31T09:16:22;5.97;;;2.35;;
23230;SDS011;11784;49.818;8.632;2023-01-31T09:18:48;4.40;;;2.58;;
23230;SDS011;11784;49.818;8.632;2023-01-31T09:21:15;4.00;;;2.38;;
23230;SDS011;11784;49.818;8.632;2023-01-31T09:23:42;4.70;;;2.20;;
23230;SDS011;11784;49.818;8.632;2023-01-31T09:26:10;7.30;;;2.50;;
23230;SDS011;11784;49.818;8.632;2023-01-31T09:28:36;4.13;;;2.10;;
23230;SDS011;11784;49.818;8.632;2023-01-31T09:31:03;3.97;;;2.17;;
23230;SDS011;11784;49.818;8.632;2023-01-31T09:33:30;7.38;;;1.83;;
23230;SDS011;11784;49.818;8.632;2023-01-31T09:35:57;3.60;;;1.77;;
23230;SDS011;11784;49.818;8.632;2023-01-31T09:38:24;5.15;;;1.70;;
23230;SDS011;11784;49.818;8.632;2023-01-31T09:40:50;5.78;;;2.63;;
23230;SDS011;11784;49.818;8.632;2023-01-31T09:43:17;5.55;;;2.03;;
23230;SDS011;11784;49.818;8.632;2023-01-31T09:45:45;3.97;;;1.67;;
23230;SDS011;11784;49.818;8.632;2023-01-31T09:48:19;7.30;;;2.33;;
23230;SDS011;11784;49.818;8.632;2023-01-31T09:53:15;9.43;;;3.97;;
23230;SDS011;11784;49.818;8.632;2023-01-31T09:59:03;4.70;;;2.03;;
23230;SDS011;11784;49.818;8.632;2023-01-31T10:04:28;7.28;;;2.40;;
23230;SDS011;11784;49.818;8.632;2023-01-31T10:07:19;5.28;;;2.47;;
23230;SDS011;11784;49.818;8.632;2023-01-31T10:09:54;4.00;;;1.58;;
23230;SDS011;11784;49.818;8.632;2023-01-31T10:12:28;6.25;;;3.00;;
23230;SDS011;11784;49.818;8.632;2023-01-31T10:15:03;6.07;;;2.03;;
23230;SDS011;11784;49.818;8.632;2023-01-31T10:17:51;4.90;;;2.42;;
23230;SDS011;11784;49.818;8.632;2023-01-31T10:20:28;8.48;;;2.10;;
23230;SDS011;11784;49.818;8.632;2023-01-31T10:25:43;6.03;;;2.13;;
23230;SDS011;11784;49.818;8.632;2023-01-31T10:28:38;3.97;;;1.95;;
23230;SDS011;11784;49.818;8.632;2023-01-31T10:36:39;3.85;;;2.13;;
23230;SDS011;11784;49.818;8.632;2023-01-31T10:44:53;4.97;;;2.17;;
23230;SDS011;11784;49.818;8.632;2023-01-31T10:47:54;6.40;;;2.55;;
23230;SDS011;11784;49.818;8.632;2023-01-31T10:50:32;4.22;;;2.30;;
23230;SDS011;11784;49.818;8.632;2023-01-31T10:58:31;4.20;;;2.15;;
23230;SDS011;11784;49.818;8.632;2023-01-31T11:00:58;5.00;;;2.30;;
23230;SDS011;11784;49.818;8.632;2023-01-31T11:03:24;7.68;;;2.85;;
23230;SDS011;11784;49.818;8.632;2023-01-31T11:05:53;4.07;;;1.67;;
23230;SDS011;11784;49.818;8.632;2023-01-31T11:08:24;11.93;;;3.28;;
23230;SDS011;11784;49.818;8.632;2023-01-31T11:11:19;8.77;;;2.65;;
23230;SDS011;11784;49.818;8.632;2023-01-31T11:13:59;9.57;;;2.65;;
23230;SDS011;11784;49.818;8.632;2023-01-31T11:16:34;5.05;;;2.60;;
23230;SDS011;11784;49.818;8.632;2023-01-31T11:19:13;6.35;;;2.08;;
23230;SDS011;11784;49.818;8.632;2023-01-31T11:21:48;3.55;;;1.63;;
23230;SDS011;11784;49.818;8.632;2023-01-31T11:24:16;6.85;;;2.45;;
23230;SDS011;11784;49.818;8.632;2023-01-31T11:27:04;6.75;;;2.13;;
23230;SDS011;11784;49.818;8.632;2023-01-31T11:29:38;6.28;;;2.33;;
23230;SDS011;11784;49.818;8.632;2023-01-31T11:35:00;9.80;;;2.83;;
23230;SDS011;11784;49.818;8.632;2023-01-31T11:37:29;5.78;;;2.03;;
23230;SDS011;11784;49.818;8.632;2023-01-31T11:39:56;5.97;;;3.20;;
23230;SDS011;11784;49.818;8.632;2023-01-31T11:42:23;17.02;;;2.47;;
23230;SDS011;11784;49.818;8.632;2023-01-31T11:44:57;12.55;;;2.97;;
23230;SDS011;11784;49.818;8.632;2023-01-31T11:47:25;11.00;;;3.13;;
23230;SDS011;11784;49.818;8.632;2023-01-31T11:49:55;10.32;;;3.58;;
23230;SDS011;11784;49.818;8.632;2023-01-31T11:52:21;7.88;;;2.58;;
23230;SDS011;11784;49.818;8.632;2023-01-31T11:54:53;4.82;;;2.38;;
23230;SDS011;11784;49.818;8.632;2023-01-31T11:57:22;5.97;;;2.65;;
23230;SDS011;11784;49.818;8.632;2023-01-31T11:59:57;7.50;;;2.65;;
23230;SDS011;11784;49.818;8.632;2023-01-31T12:02:34;10.93;;;2.78;;
23230;SDS011;11784;49.818;8.632;2023-01-31T12:05:08;3.83;;;1.75;;
23230;SDS011;11784;49.818;8.632;2023-01-31T12:13:15;5.03;;;1.70;;
23230;SDS011;11784;49.818;8.632;2023-01-31T12:15:49;9.35;;;2.38;;
23230;SDS011;11784;49.818;8.632;2023-01-31T12:22:09;5.38;;;2.08;;
23230;SDS011;11784;49.818;8.632;2023-01-31T12:24:55;2.75;;;1.60;;
23230;SDS011;11784;49.818;8.632;2023-01-31T12:43:53;5.28;;;2.00;;
23230;SDS011;11784;49.818;8.632;2023-01-31T12:49:10;10.23;;;3.40;;
23230;SDS011;11784;49.818;8.632;2023-01-31T12:51:50;6.63;;;2.47;;
23230;SDS011;11784;49.818;8.632;2023-01-31T13:05:13;6.07;;;2.60;;
23230;SDS011;11784;49.818;8.632;2023-01-31T13:13:27;3.75;;;1.85;;
23230;SDS011;11784;49.818;8.632;2023-01-31T13:18:21;14.13;;;3.13;;
23230;SDS011;11784;49.818;8.632;2023-01-31T13:20:58;6.78;;;1.75;;
23230;SDS011;11784;49.818;8.632;2023-01-31T13:23:30;6.95;;;2.05;;
23230;SDS011;11784;49.818;8.632;2023-01-31T13:26:13;9.00;;;2.38;;
23230;SDS011;11784;49.818;8.632;2023-01-31T13:28:46;5.55;;;2.40;;
23230;SDS011;11784;49.818;8.632;2023-01-31T13:31:29;2.72;;;1.23;;
23230;SDS011;11784;49.818;8.632;2023-01-31T13:36:47;9.02;;;1.95;;
23230;SDS011;11784;49.818;8.632;2023-01-31T13:39:18;2.08;;;1.38;;
23230;SDS011;11784;49.818;8.632;2023-01-31T13:41:48;8.80;;;2.17;;
23230;SDS011;11784;49.818;8.632;2023-01-31T13:44:13;10.10;;;1.88;;
23230;SDS011;11784;49.818;8.632;2023-01-31T13:46:48;5.85;;;2.30;;
23230;SDS011;11784;49.818;8.632;2023-01-31T13:49:22;1.40;;;1.10;;
23230;SDS011;11784;49.818;8.632;2023-01-31T13:51:52;4.70;;;1.90;;
23230;SDS011;11784;49.818;8.632;2023-01-31T13:54:30;2.17;;;1.83;;
23230;SDS011;11784;49.818;8.632;2023-01-31T13:56:59;7.00;;;1.70;;
23230;SDS011;11784;49.818;8.632;2023-01-31T13:59:27;3.58;;;1.73;;
23230;SDS011;11784;49.818;8.632;2023-01-31T14:01:56;2.78;;;1.83;;
23230;SDS011;11784;49.818;8.632;2023-01-31T14:04:28;2.90;;;1.70;;
23230;SDS011;11784;49.818;8.632;2023-01-31T14:22:28;4.97;;;2.15;;
23230;SDS011;11784;49.818;8.632;2023-01-31T14:29:56;3.95;;;1.58;;
23230;SDS011;11784;49.818;8.632;2023-01-31T14:32:42;3.53;;;2.40;;
23230;SDS011;11784;49.818;8.632;2023-01-31T14:40:33;4.93;;;2.03;;
23230;SDS011;11784;49.818;8.632;2023-01-31T14:45:49;4.10;;;1.58;;
23230;SDS011;11784;49.818;8.632;2023-01-31T14:57:23;4.25;;;1.70;;
23230;SDS011;11784;49.818;8.632;2023-01-31T14:59:55;4.03;;;2.25;;
23230;SDS011;11784;49.818;8.632;2023-01-31T15:04:57;3.95;;;2.10;;
23230;SDS011;11784;49.818;8.632;2023-01-31T15:07:29;5.25;;;2.65;;
23230;SDS011;11784;49.818;8.632;2023-01-31T15:09:54;1.95;;;1.33;;
23230;SDS011;11784;49.818;8.632;2023-01-31T15:13:26;3.47;;;2.30;;
23230;SDS011;11784;49.818;8.632;2023-01-31T15:15:32;3.50;;;1.80;;
23230;SDS011;11784;49.818;8.632;2023-01-31T15:18:03;6.43;;;2.25;;
23230;SDS011;11784;49.818;8.632;2023-01-31T15:20:50;7.05;;;2.15;;
23230;SDS011;11784;49.818;8.632;2023-01-31T15:23:25;2.65;;;1.90;;
23230;SDS011;11784;49.818;8.632;2023-01-31T15:25:54;5.85;;;2.65;;
23230;SDS011;11784;49.818;8.632;2023-01-31T15:28:24;9.27;;;3.17;;
23230;SDS011;11784;49.818;8.632;2023-01-31T15:30:55;6.13;;;2.60;;
23230;SDS011;11784;49.818;8.632;2023-01-31T15:33:28;6.68;;;2.33;;
23230;SDS011;11784;49.818;8.632;2023-01-31T15:36:02;2.08;;;1.33;;
23230;SDS011;11784;49.818;8.632;2023-01-31T15:38:33;7.95;;;2.50;;
23230;SDS011;11784;49.818;8.632;2023-01-31T15:41:22;7.10;;;2.63;;
23230;SDS011;11784;49.818;8.632;2023-01-31T15:43:53;6.65;;;2.80;;
23230;SDS011;11784;49.818;8.632;2023-01-31T15:46:27;8.60;;;3.53;;
23230;SDS011;11784;49.818;8.632;2023-01-31T15:48:55;3.88;;;1.85;;
23230;SDS011;11784;49.818;8.632;2023-01-31T15:51:22;5.32;;;2.22;;
23230;SDS011;11784;49.818;8.632;2023-01-31T15:53:48;4.72;;;2.90;;
23230;SDS011;11784;49.818;8.632;2023-01-31T15:56:25;2.63;;;1.33;;
23230;SDS011;11784;49.818;8.632;2023-01-31T15:58:53;6.28;;;2.40;;
23230;SDS011;11784;49.818;8.632;2023-01-31T16:01:20;6.43;;;2.70;;
23230;SDS011;11784;49.818;8.632;2023-01-31T16:03:52;4.15;;;2.10;;
23230;SDS011;11784;49.818;8.632;2023-01-31T16:06:21;3.45;;;2.03;;
23230;SDS011;11784;49.818;8.632;2023-01-31T16:08:55;2.42;;;1.25;;
23230;SDS011;11784;49.818;8.632;2023-01-31T16:11:22;5.20;;;2.40;;
23230;SDS011;11784;49.818;8.632;2023-01-31T16:13:50;23.15;;;2.50;;
23230;SDS011;11784;49.818;8.632;2023-01-31T16:16:16;2.33;;;1.50;;
23230;SDS011;11784;49.818;8.632;2023-01-31T16:18:44;4.22;;;2.22;;
23230;SDS011;11784;49.818;8.632;2023-01-31T16:21:14;4.85;;;1.60;;
23230;SDS011;11784;49.818;8.632;2023-01-31T16:26:36;3.22;;;1.75;;
23230;SDS011;11784;49.818;8.632;2023-01-31T16:29:14;4.18;;;2.00;;
23230;SDS011;11784;49.818;8.632;2023-01-31T16:31:48;2.50;;;1.50;;
23230;SDS011;11784;49.818;8.632;2023-01-31T16:34:20;3.83;;;1.95;;
23230;SDS011;11784;49.818;8.632;2023-01-31T16:36:51;3.75;;;2.08;;
23230;SDS011;11784;49.818;8.632;2023-01-31T16:41:51;5.18;;;1.85;;
23230;SDS011;11784;49.818;8.632;2023-01-31T16:44:20;5.80;;;2.47;;
23230;SDS011;11784;49.818;8.632;2023-01-31T16:46:47;4.35;;;2.03;;
23230;SDS011;11784;49.818;8.632;2023-01-31T16:49:18;11.20;;;2.45;;
23230;SDS011;11784;49.818;8.632;2023-01-31T16:51:49;4.18;;;2.13;;
23230;SDS011;11784;49.818;8.632;2023-01-31T16:56:44;4.13;;;2.28;;
23230;SDS011;11784;49.818;8.632;2023-01-31T16:59:36;2.92;;;1.50;;
23230;SDS011;11784;49.818;8.632;2023-01-31T17:02:09;5.18;;;1.83;;
23230;SDS011;11784;49.818;8.632;2023-01-31T17:04:39;4.13;;;1.70;;
23230;SDS011;11784;49.818;8.632;2023-01-31T17:07:07;6.72;;;2.40;;
23230;SDS011;11784;49.818;8.632;2023-01-31T17:09:40;4.70;;;1.80;;
23230;SDS011;11784;49.818;8.632;2023-01-31T17:12:05;4.03;;;1.77;;
23230;SDS011;11784;49.818;8.632;2023-01-31T17:14:34;4.57;;;2.20;;
23230;SDS011;11784;49.818;8.632;2023-01-31T17:16:59;4.47;;;2.20;;
23230;SDS011;11784;49.818;8.632;2023-01-31T17:19:25;3.60;;;2.58;;
23230;SDS011;11784;49.818;8.632;2023-01-31T17:21:51;7.80;;;2.25;;
23230;SDS011;11784;49.818;8.632;2023-01-31T17:24:17;8.25;;;1.88;;
23230;SDS011;11784;49.818;8.632;2023-01-31T17:26:46;5.55;;;1.77;;
23230;SDS011;11784;49.818;8.632;2023-01-31T17:29:12;4.57;;;2.67;;
23230;SDS011;11784;49.818;8.632;2023-01-31T17:31:37;5.70;;;1.98;;
23230;SDS011;11784;49.818;8.632;2023-01-31T17:34:03;6.18;;;2.20;;
23230;SDS011;11784;49.818;8.632;2023-01-31T17:36:34;3.17;;;1.90;;
23230;SDS011;11784;49.818;8.632;2023-01-31T17:39:00;3.47;;;1.80;;
23230;SDS011;11784;49.818;8.632;2023-01-31T17:41:25;5.93;;;2.50;;
23230;SDS011;11784;49.818;8.632;2023-01-31T17:43:51;6.38;;;2.65;;